| time (UTC) | temp F | wind direction | speed knots | gust knots | rain 1hr in | rain 24hr in | rain mn in | humidity % | barometer mb |
| 20260901161548 | 35 | 345 | 3.5 | 4.3 | 0.00 | 0.17 | 0.00 | 89 | 1006.1 |
| 20260901160040 | 35 | 18 | 2.6 | 5.2 | 0.00 | 0.17 | 0.00 | 88 | 1006.1 |
| 20260901154535 | 36 | 12 | 4.3 | 7.8 | 0.00 | 0.18 | 0.00 | 86 | 1006.1 |
| 20260901153036 | 35 | 19 | 4.3 | 8.7 | 0.00 | 0.18 | 0.00 | 87 | 1006.2 |
| 20260901151550 | 36 | 312 | 6.1 | 10.4 | 0.00 | 0.18 | 0.00 | 84 | 1006.1 |
| 20260901150038 | 36 | 339 | 6.1 | 8.7 | 0.00 | 0.18 | 0.00 | 86 | 1006.1 |
| 20260901144539 | 36 | 17 | 7.0 | 10.4 | 0.00 | 0.26 | 0.00 | 84 | 1006.1 |
| 20260901143040 | 37 | 325 | 5.2 | 8.7 | 0.00 | 0.26 | 0.00 | 83 | 1005.9 |
| 20260901141543 | 36 | 20 | 7.8 | 12.2 | 0.00 | 0.26 | 0.00 | 86 | 1005.7 |
| 20260901140036 | 36 | 333 | 5.2 | 9.6 | 0.00 | 0.26 | 0.00 | 86 | 1005.6 |
| 20260901134536 | 37 | 30 | 6.1 | 10.4 | 0.00 | 0.47 | 0.00 | 83 | 1005.6 |
| 20260901133044 | 36 | 12 | 7.0 | 8.7 | 0.00 | 0.47 | 0.00 | 87 | 1005.6 |
| 20260901131541 | 35 | 13 | 6.1 | 7.0 | 0.00 | 0.47 | 0.00 | 88 | 1005.6 |
| 20260901130040 | 36 | 19 | 6.1 | 7.8 | 0.00 | 0.47 | 0.00 | 87 | 1005.7 |
| 20260901124537 | 35 | 352 | 5.2 | 9.6 | 0.00 | 0.52 | 0.00 | 88 | 1005.7 |
| 20260901123040 | 37 | 14 | 7.0 | 10.4 | 0.00 | 0.52 | 0.00 | 86 | 1005.7 |
| 20260901121541 | 36 | 345 | 7.8 | 10.4 | 0.00 | 0.52 | 0.00 | 86 | 1005.6 |
| 20260901120037 | 37 | 15 | 3.5 | 7.0 | 0.00 | 0.52 | 0.00 | 85 | 1005.7 |
| 20260901114535 | 36 | 23 | 4.3 | 7.8 | 0.00 | 0.52 | 0.00 | 86 | 1005.5 |
| 20260901113039 | 37 | 333 | 5.2 | 7.0 | 0.00 | 0.52 | 0.00 | 86 | 1005.5 |
| 20260901111541 | 36 | 333 | 4.3 | 7.8 | 0.00 | 0.52 | 0.00 | 87 | 1005.5 |
| 20260901110040 | 36 | 10 | 4.3 | 6.1 | 0.00 | 0.52 | 0.00 | 88 | 1005.4 |
| 20260901104539 | 36 | 21 | 4.3 | 6.1 | 0.00 | 0.52 | 0.00 | 87 | 1005.4 |
| 20260901103035 | 37 | 315 | 2.6 | 5.2 | 0.00 | 0.52 | 0.00 | 87 | 1005.4 |
| 20260901101537 | 36 | 13 | 2.6 | 4.3 | 0.00 | 0.52 | 0.00 | 90 | 1005.4 |
| 20260901100039 | 37 | 18 | 3.5 | 10.4 | 0.00 | 0.52 | 0.00 | 86 | 1005.4 |
| 20260901094539 | 37 | 327 | 5.2 | 7.8 | 0.00 | 0.52 | 0.00 | 88 | 1005.5 |
| 20260901093039 | 37 | 22 | 7.0 | 8.7 | 0.00 | 0.52 | 0.00 | 89 | 1005.6 |
| 20260901091535 | 36 | 352 | 2.6 | 3.5 | 0.00 | 0.52 | 0.00 | 91 | 1005.4 |
| 20260901090038 | 36 | 26 | 4.3 | 6.1 | 0.00 | 0.52 | 0.00 | 89 | 1005.2 |
| 20260901084545 | 38 | 30 | 4.3 | 7.8 | 0.00 | 0.52 | 0.00 | 87 | 1005.2 |
| 20260901083037 | 38 | 336 | 5.2 | 9.6 | 0.00 | 0.52 | 0.00 | 88 | 1005.1 |
| 20260901081536 | 38 | 32 | 3.5 | 7.0 | 0.00 | 0.52 | 0.00 | 86 | 1005.2 |
| 20260901080050 | 37 | 325 | 5.2 | 8.7 | 0.00 | 0.52 | 0.00 | 88 | 1005.2 |
| 20260901074543 | 36 | 355 | 3.5 | 5.2 | 0.00 | 0.52 | 0.52 | 91 | 1005.2 |
| 20260901073046 | 37 | 30 | 4.3 | 7.8 | 0.00 | 0.52 | 0.52 | 89 | 1004.9 |
| 20260901071541 | 37 | 351 | 7.0 | 9.6 | 0.00 | 0.52 | 0.52 | 90 | 1004.9 |
| 20260901070041 | 37 | 28 | 3.5 | 4.3 | 0.00 | 0.52 | 0.52 | 90 | 1004.9 |
| 20260901064539 | 37 | 336 | 4.3 | 7.0 | 0.00 | 0.58 | 0.52 | 91 | 1004.6 |
| 20260901063044 | 37 | 15 | 3.5 | 7.0 | 0.00 | 0.58 | 0.52 | 90 | 1004.4 |
| 20260901061541 | 37 | 5 | 4.3 | 6.1 | 0.00 | 0.58 | 0.52 | 91 | 1004.4 |
| 20260901060043 | 38 | 318 | 3.5 | 7.0 | 0.00 | 0.58 | 0.52 | 91 | 1004.0 |
| 20260901054540 | 39 | 30 | 3.5 | 7.0 | 0.00 | 0.63 | 0.52 | 88 | 1003.8 |
| 20260901053056 | 39 | 24 | 3.5 | 7.0 | 0.00 | 0.63 | 0.52 | 90 | 1003.8 |
| 20260901051538 | 39 | 287 | 3.5 | 6.1 | 0.00 | 0.63 | 0.52 | 89 | 1003.5 |
| 20260901050038 | 40 | 18 | 3.5 | 5.2 | 0.00 | 0.63 | 0.52 | 87 | 1003.3 |
| 20260901044549 | 41 | 324 | 3.5 | 7.8 | 0.00 | 0.65 | 0.52 | 86 | 1003.3 |
| 20260901043042 | 43 | 346 | 2.6 | 7.0 | 0.00 | 0.65 | 0.52 | 81 | 1003.1 |
| 20260901041553 | 44 | 28 | 3.5 | 5.2 | 0.00 | 0.65 | 0.52 | 82 | 1003.0 |
| 20260901040055 | 44 | 34 | 2.6 | 5.2 | 0.00 | 0.65 | 0.52 | 80 | 1002.8 |
| 20260901034541 | 45 | 0 | 0.0 | 1.7 | 0.00 | 0.68 | 0.52 | 80 | 1002.8 |
| 20260901033041 | 46 | 229 | 3.5 | 6.1 | 0.00 | 0.68 | 0.52 | 77 | 1002.7 |
| 20260901031540 | 46 | 200 | 3.5 | 7.8 | 0.00 | 0.68 | 0.52 | 77 | 1002.5 |
| 20260901030042 | 45 | 232 | 4.3 | 9.6 | 0.00 | 0.68 | 0.52 | 81 | 1002.3 |
| 20260901024546 | 46 | 218 | 3.5 | 7.8 | 0.00 | 0.68 | 0.52 | 83 | 1002.0 |
| 20260901023043 | 47 | 205 | 3.5 | 7.8 | 0.00 | 0.68 | 0.52 | 80 | 1002.1 |
| 20260901021541 | 48 | 234 | 3.5 | 8.7 | 0.00 | 0.68 | 0.52 | 80 | 1002.1 |
| 20260901020043 | 48 | 227 | 4.3 | 8.7 | 0.00 | 0.68 | 0.52 | 80 | 1001.7 |
| 20260901014542 | 48 | 196 | 4.3 | 9.6 | 0.00 | 0.68 | 0.52 | 81 | 1001.8 |
| 20260901013039 | 48 | 149 | 3.5 | 7.0 | 0.00 | 0.68 | 0.52 | 81 | 1001.7 |
| 20260901011542 | 47 | 0 | 1.7 | 6.1 | 0.00 | 0.68 | 0.52 | 82 | 1001.5 |
| 20260901010051 | 47 | 155 | 2.6 | 5.2 | 0.00 | 0.68 | 0.52 | 82 | 1001.5 |
| 20260901004539 | 45 | 230 | 2.6 | 6.1 | 0.00 | 0.68 | 0.52 | 83 | 1001.4 |
| 20260901003039 | 45 | 130 | 4.3 | 7.8 | 0.00 | 0.68 | 0.52 | 84 | 1001.2 |
| 20260901001539 | 44 | 190 | 2.6 | 7.0 | 0.00 | 0.68 | 0.52 | 84 | 1001.1 |
| 20260901000040 | 44 | 190 | 3.5 | 7.0 | 0.00 | 0.68 | 0.52 | 84 | 1001.0 |
| 20260831234536 | 45 | 156 | 2.6 | 6.1 | 0.00 | 0.68 | 0.52 | 82 | 1000.9 |
| 20260831233043 | 44 | 225 | 2.6 | 7.8 | 0.00 | 0.68 | 0.52 | 84 | 1000.7 |
| 20260831231538 | 43 | 195 | 3.5 | 7.0 | 0.00 | 0.68 | 0.52 | 84 | 1000.7 |
| 20260831230037 | 42 | 175 | 2.6 | 7.0 | 0.00 | 0.68 | 0.52 | 87 | 1000.6 |
| 20260831224537 | 42 | 211 | 3.5 | 7.0 | 0.00 | 0.68 | 0.52 | 87 | 1000.6 |
| 20260831223035 | 42 | 196 | 3.5 | 7.0 | 0.00 | 0.68 | 0.52 | 85 | 1000.6 |
| 20260831221543 | 42 | 147 | 3.5 | 8.7 | 0.00 | 0.68 | 0.52 | 87 | 1000.5 |
| 20260831220036 | 42 | 223 | 4.3 | 7.0 | 0.00 | 0.68 | 0.52 | 86 | 1000.5 |
| 20260831214542 | 41 | 136 | 2.6 | 6.1 | 0.00 | 0.68 | 0.52 | 87 | 1000.5 |
| 20260831213041 | 40 | 121 | 2.6 | 6.1 | 0.00 | 0.68 | 0.52 | 89 | 1000.4 |
| 20260831211539 | 39 | 231 | 3.5 | 6.1 | 0.00 | 0.68 | 0.52 | 90 | 1000.5 |
| 20260831210037 | 39 | 184 | 3.5 | 7.8 | 0.00 | 0.68 | 0.52 | 91 | 1000.4 |
| 20260831204538 | 39 | 221 | 4.3 | 8.7 | 0.01 | 0.68 | 0.52 | 91 | 1000.3 |
| 20260831203034 | 39 | 205 | 5.2 | 10.4 | 0.01 | 0.68 | 0.52 | 92 | 1000.3 |
| 20260831201535 | 39 | 182 | 5.2 | 10.4 | 0.01 | 0.68 | 0.52 | 93 | 1000.1 |
| 20260831200034 | 38 | 216 | 3.5 | 7.0 | 0.01 | 0.68 | 0.52 | 93 | 1000.0 |
| 20260831194555 | 38 | 224 | 3.5 | 6.1 | 0.00 | 0.67 | 0.52 | 92 | 999.9 |
| 20260831193040 | 37 | 149 | 2.6 | 4.3 | 0.01 | 0.67 | 0.52 | 93 | 999.9 |
| 20260831191536 | 37 | 133 | 0.9 | 1.7 | 0.02 | 0.67 | 0.52 | 93 | 1000.0 |
| 20260831190050 | 37 | 0 | 0.0 | 1.7 | 0.06 | 0.67 | 0.52 | 94 | 1000.2 |
| 20260831184538 | 36 | 0 | 0.0 | 1.7 | 0.10 | 0.67 | 0.52 | 94 | 1000.1 |
| 20260831183046 | 35 | 210 | 0.0 | 1.7 | 0.10 | 0.66 | 0.51 | 94 | 1000.0 |
| 20260831181538 | 35 | 175 | 0.9 | 4.3 | 0.09 | 0.65 | 0.50 | 94 | 999.9 |
| 20260831180044 | 36 | 159 | 1.7 | 5.2 | 0.05 | 0.60 | 0.45 | 95 | 1000.0 |
| 20260831174548 | 36 | 202 | 0.9 | 6.1 | 0.02 | 0.57 | 0.42 | 96 | 1000.0 |
| 20260831173041 | 36 | 126 | 3.5 | 8.7 | 0.01 | 0.56 | 0.41 | 95 | 999.8 |
| 20260831171540 | 37 | 210 | 3.5 | 9.6 | 0.03 | 0.56 | 0.41 | 94 | 999.5 |
| 20260831170042 | 37 | 137 | 2.6 | 7.0 | 0.04 | 0.55 | 0.40 | 92 | 999.4 |
| 20260831164547 | 37 | 309 | 1.7 | 7.0 | 0.04 | 0.55 | 0.40 | 92 | 999.2 |
| 20260831163041 | 37 | 32 | 4.3 | 8.7 | 0.05 | 0.55 | 0.40 | 90 | 999.4 |